TimeCST,TemperatureF,Dew PointF,Humidity,Sea Level PressureIn,VisibilityMPH,Wind Direction,Wind SpeedMPH,Gust SpeedMPH,PrecipitationIn,Events,Conditions,WindDirDegrees,DateUTC
12:15 AM,19.4,14.0,80,30.18,7.0,NNE,8.1,-,N/A,Snow,Light Snow,20,2013-02-08 06:15:00
12:35 AM,17.6,14.0,86,30.19,7.0,North,4.6,-,N/A,Snow,Light Snow,350,2013-02-08 06:35:00
12:55 AM,17.6,12.2,79,30.19,10.0,North,9.2,-,N/A,,Overcast,360,2013-02-08 06:55:00
1:15 AM,17.6,12.2,79,30.20,10.0,NNE,6.9,16.1,N/A,,Mostly Cloudy,20,2013-02-08 07:15:00
1:35 AM,17.6,12.2,79,30.20,7.0,NNW,4.6,-,N/A,Snow,Light Snow,340,2013-02-08 07:35:00
2:15 AM,14.0,10.4,86,30.21,10.0,NNE,9.2,-,N/A,,Scattered Clouds,20,2013-02-08 08:15:00
2:35 AM,14.0,10.4,86,30.20,10.0,North,5.8,-,N/A,,Scattered Clouds,10,2013-02-08 08:35:00
2:55 AM,14.0,8.6,79,30.20,10.0,North,4.6,-,N/A,,Clear,10,2013-02-08 08:55:00
3:15 AM,12.2,8.6,85,30.20,10.0,Calm,Calm,-,N/A,,Clear,0,2013-02-08 09:15:00
3:35 AM,12.2,8.6,85,30.20,10.0,Calm,Calm,-,N/A,,Clear,0,2013-02-08 09:35:00
3:55 AM,10.4,6.8,85,30.20,10.0,NNW,3.5,-,N/A,,Clear,340,2013-02-08 09:55:00
4:15 AM,10.4,6.8,85,30.21,10.0,Calm,Calm,-,N/A,,Clear,0,2013-02-08 10:15:00
4:35 AM,10.4,6.8,85,30.21,10.0,North,3.5,-,N/A,,Clear,360,2013-02-08 10:35:00
4:55 AM,8.6,5.0,85,30.22,10.0,NNW,3.5,-,N/A,,Clear,340,2013-02-08 10:55:00
5:15 AM,8.6,5.0,85,30.22,10.0,Calm,Calm,-,N/A,,Clear,0,2013-02-08 11:15:00
5:35 AM,6.8,3.2,85,30.23,10.0,North,3.5,-,N/A,,Clear,350,2013-02-08 11:35:00
5:55 AM,5.0,3.2,92,30.24,10.0,NNW,3.5,-,N/A,,Clear,330,2013-02-08 11:55:00
6:15 AM,5.0,3.2,92,30.24,10.0,NNW,3.5,-,N/A,,Clear,340,2013-02-08 12:15:00
6:35 AM,5.0,1.4,85,30.26,10.0,Calm,Calm,-,N/A,,Clear,0,2013-02-08 12:35:00
6:55 AM,5.0,1.4,85,30.27,10.0,Calm,Calm,-,N/A,,Clear,0,2013-02-08 12:55:00
7:15 AM,5.0,1.4,85,30.28,10.0,Calm,Calm,-,N/A,,Clear,0,2013-02-08 13:15:00
7:35 AM,1.4,-2.2,85,30.29,10.0,NW,3.5,-,N/A,,Clear,310,2013-02-08 13:35:00
7:55 AM,5.0,1.4,85,30.29,10.0,Calm,Calm,-,N/A,,Clear,0,2013-02-08 13:55:00
8:15 AM,5.0,3.2,92,30.30,10.0,NNW,3.5,-,N/A,,Clear,330,2013-02-08 14:15:00
8:35 AM,8.6,5.0,85,30.30,10.0,NNW,3.5,-,N/A,,Clear,340,2013-02-08 14:35:00
8:55 AM,10.4,8.6,92,30.30,10.0,North,5.8,-,N/A,,Clear,360,2013-02-08 14:55:00
9:15 AM,12.2,8.6,85,30.30,10.0,Calm,Calm,-,N/A,,Clear,0,2013-02-08 15:15:00
9:35 AM,12.2,8.6,85,30.30,10.0,NE,6.9,-,N/A,,Clear,40,2013-02-08 15:35:00
9:55 AM,14.0,8.6,79,30.31,10.0,NE,4.6,-,N/A,,Clear,40,2013-02-08 15:55:00
10:15 AM,15.8,10.4,79,30.31,10.0,NNE,5.8,-,N/A,,Clear,20,2013-02-08 16:15:00
10:35 AM,17.6,8.6,68,30.32,10.0,NNE,6.9,-,N/A,,Clear,20,2013-02-08 16:35:00
10:55 AM,17.6,8.6,68,30.32,10.0,North,5.8,-,N/A,,Clear,360,2013-02-08 16:55:00
11:15 AM,19.4,8.6,63,30.32,10.0,NNE,4.6,-,N/A,,Clear,20,2013-02-08 17:15:00
11:35 AM,19.4,8.6,63,30.31,10.0,Calm,Calm,-,N/A,,Clear,0,2013-02-08 17:35:00
11:55 AM,21.2,8.6,58,30.31,10.0,NNE,4.6,-,N/A,,Clear,30,2013-02-08 17:55:00
12:15 PM,21.2,8.6,58,30.30,10.0,North,6.9,-,N/A,,Clear,350,2013-02-08 18:15:00
12:35 PM,21.2,8.6,58,30.30,10.0,Calm,Calm,-,N/A,,Clear,0,2013-02-08 18:35:00
12:55 PM,23.0,8.6,54,30.30,10.0,Calm,Calm,-,N/A,,Clear,0,2013-02-08 18:55:00
1:15 PM,23.0,8.6,54,30.29,10.0,ENE,3.5,-,N/A,,Clear,60,2013-02-08 19:15:00
1:35 PM,23.0,6.8,50,30.29,10.0,Calm,Calm,-,N/A,,Clear,0,2013-02-08 19:35:00
1:55 PM,24.8,8.6,50,30.28,10.0,Calm,Calm,-,N/A,,Clear,0,2013-02-08 19:55:00
2:15 PM,24.8,8.6,50,30.28,10.0,Calm,Calm,-,N/A,,Clear,0,2013-02-08 20:15:00
2:35 PM,24.8,8.6,50,30.28,10.0,Calm,Calm,-,N/A,,Clear,0,2013-02-08 20:35:00
2:55 PM,24.8,8.6,50,30.28,10.0,Calm,Calm,-,N/A,,Clear,0,2013-02-08 20:55:00
3:15 PM,24.8,8.6,50,30.29,10.0,Calm,Calm,-,N/A,,Clear,0,2013-02-08 21:15:00
3:35 PM,26.6,8.6,47,30.28,10.0,Calm,Calm,-,N/A,,Clear,0,2013-02-08 21:35:00
3:55 PM,24.8,8.6,50,30.28,10.0,Calm,Calm,-,N/A,,Clear,0,2013-02-08 21:55:00
4:15 PM,23.0,8.6,54,30.28,10.0,East,3.5,-,N/A,,Clear,80,2013-02-08 22:15:00
4:35 PM,21.2,8.6,58,30.27,10.0,East,4.6,-,N/A,,Clear,90,2013-02-08 22:35:00
4:55 PM,21.2,8.6,58,30.27,10.0,Calm,Calm,-,N/A,,Clear,0,2013-02-08 22:55:00
5:15 PM,19.4,8.6,63,30.27,10.0,Calm,Calm,-,N/A,,Clear,0,2013-02-08 23:15:00
5:35 PM,17.6,8.6,68,30.27,10.0,Calm,Calm,-,N/A,,Clear,0,2013-02-08 23:35:00
5:55 PM,14.0,8.6,79,30.27,10.0,Calm,Calm,-,N/A,,Clear,0,2013-02-08 23:55:00
6:15 PM,14.0,6.8,73,30.27,10.0,Calm,Calm,-,N/A,,Clear,0,2013-02-09 00:15:00
6:35 PM,12.2,6.8,79,30.28,10.0,Calm,Calm,-,N/A,,Clear,0,2013-02-09 00:35:00
6:55 PM,10.4,5.0,79,30.28,10.0,Calm,Calm,-,N/A,,Clear,0,2013-02-09 00:55:00
7:15 PM,8.6,5.0,85,30.28,10.0,Calm,Calm,-,N/A,,Clear,0,2013-02-09 01:15:00
7:35 PM,6.8,3.2,85,30.28,10.0,Calm,Calm,-,N/A,,Clear,0,2013-02-09 01:35:00
7:55 PM,6.8,5.0,92,30.28,10.0,Calm,Calm,-,N/A,,Clear,0,2013-02-09 01:55:00
8:15 PM,5.0,3.2,92,30.28,10.0,Calm,Calm,-,N/A,,Clear,0,2013-02-09 02:15:00
8:35 PM,5.0,1.4,85,30.28,10.0,Calm,Calm,-,N/A,,Clear,0,2013-02-09 02:35:00
8:55 PM,5.0,3.2,92,30.29,10.0,Calm,Calm,-,N/A,,Clear,0,2013-02-09 02:55:00
9:15 PM,5.0,1.4,85,30.29,10.0,Calm,Calm,-,N/A,,Clear,0,2013-02-09 03:15:00
9:35 PM,5.0,3.2,92,30.29,10.0,Calm,Calm,-,N/A,,Clear,0,2013-02-09 03:35:00
9:55 PM,5.0,1.4,85,30.28,10.0,Calm,Calm,-,N/A,,Clear,0,2013-02-09 03:55:00
10:15 PM,5.0,1.4,85,30.27,10.0,Calm,Calm,-,N/A,,Clear,0,2013-02-09 04:15:00
10:35 PM,3.2,-0.4,85,30.27,10.0,Calm,Calm,-,N/A,,Clear,0,2013-02-09 04:35:00
10:55 PM,1.4,-2.2,85,30.27,10.0,Calm,Calm,-,N/A,,Clear,0,2013-02-09 04:55:00
11:15 PM,1.4,-4.0,78,30.27,10.0,Calm,Calm,-,N/A,,Clear,0,2013-02-09 05:15:00
11:35 PM,-0.4,-4.0,85,30.26,10.0,Calm,Calm,-,N/A,,Clear,0,2013-02-09 05:35:00
11:55 PM,-0.4,-4.0,85,30.27,10.0,Calm,Calm,-,N/A,,Clear,0,2013-02-09 05:55:00